Time;durP1;ratioP1;P1;durP2;ratioP2;P2;SDS_P1;SDS_P2;PMS_P1;PMS_P2;Temp;Humidity;BMP_temperature;BMP_pressure;BME280_temperature;BME280_humidity;BME280_pressure;Samples;Min_cycle;Max_cycle;Signal;HPM_P1;HPM_P2
2023/08/13 00:02:02;;;;;;;56.63;2.57;;;;;;;;;;5050542;28;20437;-69
2023/08/13 00:04:29;;;;;;;57.17;3.10;;;;;;;;;;5050591;28;20468;-70
2023/08/13 00:06:56;;;;;;;57.10;2.50;;;;;;;;;;5050437;28;20447;-69
2023/08/13 00:09:23;;;;;;;56.80;2.90;;;;;;;;;;5050932;28;20449;-69
2023/08/13 00:11:50;;;;;;;57.20;2.67;;;;;;;;;;5050427;28;20483;-69
2023/08/13 00:14:17;;;;;;;56.60;2.40;;;;;;;;;;5050641;28;20500;-68
2023/08/13 00:16:45;;;;;;;56.50;2.23;;;;;;;;;;5050515;28;20444;-68
2023/08/13 00:19:13;;;;;;;56.47;2.20;;;;;;;;;;5050470;28;20444;-69
2023/08/13 00:21:40;;;;;;;57.70;2.83;;;;;;;;;;5050312;28;20914;-69
2023/08/13 00:24:08;;;;;;;57.97;3.17;;;;;;;;;;5053148;28;20472;-69
2023/08/13 00:26:36;;;;;;;57.50;3.03;;;;;;;;;;5054174;28;20455;-69
2023/08/13 00:29:03;;;;;;;56.77;2.40;;;;;;;;;;5054094;28;20547;-69
2023/08/13 00:31:32;;;;;;;56.93;2.60;;;;;;;;;;5054127;28;20444;-69
2023/08/13 00:33:59;;;;;;;56.90;2.70;;;;;;;;;;5053671;28;20496;-69
2023/08/13 00:36:27;;;;;;;57.17;2.53;;;;;;;;;;5054092;28;20439;-69
2023/08/13 00:38:54;;;;;;;56.80;2.53;;;;;;;;;;5053898;28;20460;-69
2023/08/13 00:41:21;;;;;;;58.23;3.60;;;;;;;;;;5053916;28;20958;-68
2023/08/13 00:43:49;;;;;;;56.90;2.50;;;;;;;;;;5053664;28;20456;-69
2023/08/13 00:46:16;;;;;;;57.30;3.03;;;;;;;;;;5053738;28;20452;-69
2023/08/13 00:48:44;;;;;;;57.00;2.47;;;;;;;;;;5053730;28;20456;-68
2023/08/13 00:51:12;;;;;;;58.57;3.00;;;;;;;;;;5054184;28;20463;-69
2023/08/13 00:53:45;;;;;;;57.10;2.80;;;;;;;;;;5053693;28;20519;-69
2023/08/13 00:56:12;;;;;;;58.17;3.00;;;;;;;;;;5053609;28;20936;-69
2023/08/13 00:58:40;;;;;;;56.70;2.70;;;;;;;;;;5053629;28;20952;-69
2023/08/13 01:01:07;;;;;;;57.00;2.80;;;;;;;;;;5053493;28;20448;-68
2023/08/13 01:03:36;;;;;;;56.67;2.43;;;;;;;;;;5053164;28;20537;-70
2023/08/13 01:06:07;;;;;;;57.37;2.70;;;;;;;;;;5053357;28;20934;-69
2023/08/13 01:08:40;;;;;;;57.40;3.90;;;;;;;;;;5053817;28;20920;-69
2023/08/13 01:11:11;;;;;;;58.00;3.17;;;;;;;;;;5053503;28;20448;-70
2023/08/13 01:13:39;;;;;;;56.60;2.90;;;;;;;;;;5052922;28;20498;-69
2023/08/13 01:16:07;;;;;;;56.57;2.90;;;;;;;;;;5053472;28;20470;-69
2023/08/13 01:18:34;;;;;;;57.07;2.93;;;;;;;;;;5053477;28;20450;-69
2023/08/13 01:21:01;;;;;;;57.40;3.70;;;;;;;;;;5053272;28;20499;-69
2023/08/13 01:23:30;;;;;;;56.90;3.07;;;;;;;;;;5052951;28;20466;-68
2023/08/13 01:25:59;;;;;;;57.97;2.60;;;;;;;;;;5053121;28;20440;-69
2023/08/13 01:28:31;;;;;;;58.63;4.50;;;;;;;;;;5053373;28;20467;-68
2023/08/13 01:30:59;;;;;;;57.43;2.80;;;;;;;;;;5053276;28;20440;-69
2023/08/13 01:33:30;;;;;;;57.13;2.60;;;;;;;;;;5052642;28;20495;-69
2023/08/13 01:35:58;;;;;;;56.90;2.73;;;;;;;;;;5051896;28;20791;-69
2023/08/13 01:38:25;;;;;;;56.70;2.40;;;;;;;;;;5052709;28;20463;-69
2023/08/13 01:40:54;;;;;;;56.67;2.47;;;;;;;;;;5053084;28;20802;-69
2023/08/13 01:43:21;;;;;;;57.10;3.00;;;;;;;;;;5052418;28;20471;-69
2023/08/13 01:45:48;;;;;;;58.13;3.50;;;;;;;;;;5052612;28;20952;-69
2023/08/13 01:48:15;;;;;;;57.50;3.27;;;;;;;;;;5051097;28;20936;-69
2023/08/13 01:50:42;;;;;;;56.90;2.60;;;;;;;;;;5052805;28;20827;-69
2023/08/13 01:53:09;;;;;;;57.53;3.53;;;;;;;;;;5052609;28;20859;-69
2023/08/13 01:55:36;;;;;;;56.87;2.90;;;;;;;;;;5052618;28;20821;-69
2023/08/13 01:58:05;;;;;;;56.67;2.73;;;;;;;;;;5052586;28;20470;-69
2023/08/13 02:00:32;;;;;;;57.37;3.37;;;;;;;;;;5052414;28;20454;-69
2023/08/13 02:02:59;;;;;;;57.10;3.00;;;;;;;;;;5052127;28;21002;-69
2023/08/13 02:05:26;;;;;;;57.00;3.00;;;;;;;;;;5052467;28;20474;-69
2023/08/13 02:07:53;;;;;;;56.47;2.30;;;;;;;;;;5052412;28;20440;-68
2023/08/13 02:10:20;;;;;;;58.17;4.67;;;;;;;;;;5052322;28;20440;-69
2023/08/13 02:12:48;;;;;;;58.97;2.97;;;;;;;;;;5051755;28;21021;-69
2023/08/13 02:15:16;;;;;;;56.77;2.70;;;;;;;;;;5052129;28;20460;-69
2023/08/13 02:17:43;;;;;;;57.37;2.90;;;;;;;;;;5052346;28;20539;-69
2023/08/13 02:20:11;;;;;;;56.70;2.40;;;;;;;;;;5052107;28;20448;-68
2023/08/13 02:22:38;;;;;;;57.00;3.10;;;;;;;;;;5051845;28;20436;-69
2023/08/13 02:25:05;;;;;;;57.20;3.30;;;;;;;;;;5052077;28;20827;-68
2023/08/13 02:27:32;;;;;;;58.87;2.97;;;;;;;;;;5051939;28;20447;-69
2023/08/13 02:30:00;;;;;;;56.63;2.90;;;;;;;;;;5051843;28;20455;-69
2023/08/13 02:32:28;;;;;;;57.10;2.93;;;;;;;;;;5051775;28;20452;-68
2023/08/13 02:34:55;;;;;;;57.20;2.80;;;;;;;;;;5051874;28;20460;-69
2023/08/13 02:37:22;;;;;;;56.47;2.60;;;;;;;;;;5051740;28;20456;-68
2023/08/13 02:39:49;;;;;;;56.53;2.70;;;;;;;;;;5051825;28;20451;-68
2023/08/13 02:42:16;;;;;;;56.47;2.90;;;;;;;;;;5051383;28;20440;-69
2023/08/13 02:44:43;;;;;;;56.80;3.27;;;;;;;;;;5051486;28;20972;-68
2023/08/13 02:47:11;;;;;;;56.67;2.80;;;;;;;;;;5051483;28;20440;-68
2023/08/13 02:49:39;;;;;;;56.50;2.40;;;;;;;;;;5051666;28;20450;-69
2023/08/13 02:52:06;;;;;;;57.77;3.33;;;;;;;;;;5051364;28;20440;-69
2023/08/13 02:54:33;;;;;;;59.27;3.93;;;;;;;;;;5051392;28;20840;-69
2023/08/13 02:57:00;;;;;;;56.90;2.63;;;;;;;;;;5051328;28;20440;-69
2023/08/13 02:59:27;;;;;;;57.33;3.07;;;;;;;;;;5051705;28;20452;-70
2023/08/13 03:01:54;;;;;;;56.80;2.83;;;;;;;;;;5051288;28;20447;-69
2023/08/13 03:04:21;;;;;;;57.40;2.67;;;;;;;;;;5051360;28;20462;-70
2023/08/13 03:06:50;;;;;;;57.77;3.23;;;;;;;;;;5051369;28;20446;-69
2023/08/13 03:09:21;;;;;;;57.23;2.97;;;;;;;;;;5051362;28;20463;-69
2023/08/13 03:11:48;;;;;;;56.90;2.60;;;;;;;;;;5050939;28;20998;-71
2023/08/13 03:14:15;;;;;;;57.57;3.07;;;;;;;;;;5051244;28;20488;-69
2023/08/13 03:16:42;;;;;;;56.77;3.17;;;;;;;;;;5051072;28;20445;-70
2023/08/13 03:19:09;;;;;;;56.90;2.50;;;;;;;;;;5051297;28;20440;-69
2023/08/13 03:21:36;;;;;;;56.87;3.53;;;;;;;;;;5051021;28;20440;-71
2023/08/13 03:24:05;;;;;;;57.07;2.70;;;;;;;;;;5050885;28;20474;-68
2023/08/13 03:26:32;;;;;;;56.70;3.07;;;;;;;;;;5051257;28;20446;-70
2023/08/13 03:28:59;;;;;;;57.03;3.60;;;;;;;;;;5051071;28;20440;-68
2023/08/13 03:31:26;;;;;;;57.80;3.40;;;;;;;;;;5051142;28;20444;-69
2023/08/13 03:33:53;;;;;;;56.27;2.27;;;;;;;;;;5050692;28;20510;-68
2023/08/13 03:36:20;;;;;;;59.90;4.23;;;;;;;;;;5050923;28;20452;-70
2023/08/13 03:38:47;;;;;;;57.40;3.20;;;;;;;;;;5050815;28;20471;-69
2023/08/13 03:41:16;;;;;;;56.60;2.77;;;;;;;;;;5051109;28;20455;-69
2023/08/13 03:43:43;;;;;;;57.00;2.90;;;;;;;;;;5050571;28;21002;-68
2023/08/13 03:46:10;;;;;;;56.77;2.77;;;;;;;;;;5050901;28;20454;-69
2023/08/13 03:48:37;;;;;;;57.47;3.70;;;;;;;;;;5050895;28;20444;-69
2023/08/13 03:51:04;;;;;;;56.47;2.37;;;;;;;;;;5050806;28;20451;-69
2023/08/13 03:53:31;;;;;;;57.10;2.70;;;;;;;;;;5050362;28;20499;-69
2023/08/13 03:55:59;;;;;;;57.50;3.03;;;;;;;;;;5050934;28;20452;-68
2023/08/13 03:58:28;;;;;;;56.63;2.93;;;;;;;;;;5052209;28;20936;-68
2023/08/13 04:00:55;;;;;;;56.43;2.40;;;;;;;;;;5054806;28;20871;-69
2023/08/13 04:03:22;;;;;;;57.77;3.03;;;;;;;;;;5054326;28;20460;-68
2023/08/13 04:05:49;;;;;;;58.00;3.80;;;;;;;;;;5054518;28;20455;-70
2023/08/13 04:08:16;;;;;;;63.23;3.50;;;;;;;;;;5054547;28;20444;-68
2023/08/13 04:10:43;;;;;;;57.00;2.77;;;;;;;;;;5054476;28;20954;-69
2023/08/13 04:13:11;;;;;;;57.10;2.93;;;;;;;;;;5054267;28;20549;-68
2023/08/13 04:15:39;;;;;;;56.37;2.57;;;;;;;;;;5054433;28;20493;-69
2023/08/13 04:18:07;;;;;;;56.90;3.80;;;;;;;;;;5054266;28;20448;-68
2023/08/13 04:20:34;;;;;;;56.50;2.40;;;;;;;;;;5054387;28;20436;-69
2023/08/13 04:23:01;;;;;;;57.07;2.70;;;;;;;;;;5054207;28;20460;-69
2023/08/13 04:25:28;;;;;;;56.53;2.30;;;;;;;;;;5054253;28;20448;-69
2023/08/13 04:27:55;;;;;;;57.03;2.83;;;;;;;;;;5054258;28;20467;-69
2023/08/13 04:30:22;;;;;;;56.50;2.20;;;;;;;;;;5054176;28;20446;-69
2023/08/13 04:32:54;;;;;;;57.07;2.73;;;;;;;;;;5053681;28;20454;-69
2023/08/13 04:35:21;;;;;;;57.20;2.80;;;;;;;;;;5054181;28;20440;-69
2023/08/13 04:37:49;;;;;;;56.60;2.37;;;;;;;;;;5053891;28;20952;-69
2023/08/13 04:40:16;;;;;;;56.70;2.37;;;;;;;;;;5054086;28;20436;-69
2023/08/13 04:42:43;;;;;;;56.80;2.83;;;;;;;;;;5053700;28;20440;-69
2023/08/13 04:45:12;;;;;;;56.60;2.27;;;;;;;;;;5053888;28;20440;-70
2023/08/13 04:47:39;;;;;;;56.67;2.87;;;;;;;;;;5053942;28;20439;-68
2023/08/13 04:50:08;;;;;;;57.80;3.13;;;;;;;;;;5054000;28;20816;-69
2023/08/13 04:52:35;;;;;;;57.73;2.50;;;;;;;;;;5053533;28;20450;-69
2023/08/13 04:55:02;;;;;;;56.70;2.40;;;;;;;;;;5053685;28;20484;-69
2023/08/13 04:57:29;;;;;;;56.50;2.40;;;;;;;;;;5053609;28;20523;-68
2023/08/13 04:59:56;;;;;;;56.70;3.03;;;;;;;;;;5053552;28;20466;-69
2023/08/13 05:02:23;;;;;;;57.03;3.73;;;;;;;;;;5053467;28;20441;-69
2023/08/13 05:04:51;;;;;;;58.33;2.43;;;;;;;;;;5053647;28;20466;-69
2023/08/13 05:07:19;;;;;;;56.40;2.30;;;;;;;;;;5053547;28;20767;-68
2023/08/13 05:09:46;;;;;;;57.63;3.27;;;;;;;;;;5053415;28;20441;-68
2023/08/13 05:12:13;;;;;;;58.37;2.97;;;;;;;;;;5053119;28;20440;-69
2023/08/13 05:14:40;;;;;;;56.53;2.53;;;;;;;;;;5053120;28;20489;-68
2023/08/13 05:17:18;;;;;;;56.57;2.63;;;;;;;;;;5053131;28;20974;-69
2023/08/13 05:19:45;;;;;;;56.53;2.53;;;;;;;;;;5053457;28;20494;-69
2023/08/13 05:22:12;;;;;;;56.80;2.97;;;;;;;;;;5053194;28;20436;-68
2023/08/13 05:24:40;;;;;;;56.70;2.73;;;;;;;;;;5053095;28;20460;-68
2023/08/13 05:27:07;;;;;;;56.37;2.80;;;;;;;;;;5053000;28;20825;-69
2023/08/13 05:29:34;;;;;;;56.87;3.00;;;;;;;;;;5053115;28;20928;-68
2023/08/13 05:32:02;;;;;;;57.00;2.73;;;;;;;;;;5052941;28;20444;-69
2023/08/13 05:34:29;;;;;;;56.30;2.50;;;;;;;;;;5052944;28;20484;-68
2023/08/13 05:36:56;;;;;;;56.33;2.50;;;;;;;;;;5052831;28;20456;-68
2023/08/13 05:39:23;;;;;;;57.17;3.00;;;;;;;;;;5052995;28;20444;-68
2023/08/13 05:41:51;;;;;;;56.60;2.80;;;;;;;;;;5052612;28;20444;-68
2023/08/13 05:44:18;;;;;;;56.47;2.90;;;;;;;;;;5052723;28;20980;-68
2023/08/13 05:46:45;;;;;;;57.37;3.10;;;;;;;;;;5052900;28;20795;-68
2023/08/13 05:49:12;;;;;;;56.40;2.33;;;;;;;;;;5052901;28;20446;-68
2023/08/13 05:51:40;;;;;;;57.20;2.73;;;;;;;;;;5052665;28;20437;-68
2023/08/13 05:54:08;;;;;;;56.37;2.67;;;;;;;;;;5052472;28;20488;-69
2023/08/13 05:56:35;;;;;;;56.30;2.50;;;;;;;;;;5052771;28;20494;-68
2023/08/13 05:59:04;;;;;;;56.37;2.37;;;;;;;;;;5053087;28;20531;-68
2023/08/13 06:01:31;;;;;;;57.47;4.33;;;;;;;;;;5052634;28;20828;-69
2023/08/13 06:03:58;;;;;;;56.37;2.40;;;;;;;;;;5052300;28;20471;-68
2023/08/13 06:06:25;;;;;;;56.60;2.60;;;;;;;;;;5052335;28;20978;-68
2023/08/13 06:08:53;;;;;;;56.53;2.60;;;;;;;;;;5052294;28;20445;-69
2023/08/13 06:11:20;;;;;;;56.67;2.60;;;;;;;;;;5052619;28;20445;-68
2023/08/13 06:13:47;;;;;;;56.80;2.90;;;;;;;;;;5052060;28;20488;-69
2023/08/13 06:16:15;;;;;;;58.60;2.90;;;;;;;;;;5052306;28;20451;-68
2023/08/13 06:18:42;;;;;;;56.50;2.30;;;;;;;;;;5052180;28;20459;-68
2023/08/13 06:21:09;;;;;;;56.80;3.07;;;;;;;;;;5051561;28;20444;-69
2023/08/13 06:23:36;;;;;;;57.27;2.97;;;;;;;;;;5052213;28;20470;-69
2023/08/13 06:26:03;;;;;;;56.97;3.20;;;;;;;;;;5052382;28;20440;-69
2023/08/13 06:28:30;;;;;;;56.60;3.00;;;;;;;;;;5052174;28;20437;-68
2023/08/13 06:30:58;;;;;;;56.37;2.60;;;;;;;;;;5052093;28;20456;-68
2023/08/13 06:33:26;;;;;;;56.77;2.67;;;;;;;;;;5051612;28;20460;-68
2023/08/13 06:35:53;;;;;;;57.63;2.97;;;;;;;;;;5051686;28;20863;-69
2023/08/13 06:38:20;;;;;;;57.20;2.60;;;;;;;;;;5051789;28;20544;-68
2023/08/13 06:40:47;;;;;;;56.70;2.60;;;;;;;;;;5051951;28;20452;-68
2023/08/13 06:43:14;;;;;;;57.10;2.90;;;;;;;;;;5051489;28;20460;-68
2023/08/13 06:45:41;;;;;;;56.80;2.93;;;;;;;;;;5051692;28;20441;-69
2023/08/13 06:48:08;;;;;;;57.87;3.23;;;;;;;;;;5051704;28;20523;-68
2023/08/13 06:50:38;;;;;;;56.23;2.60;;;;;;;;;;5051587;28;20956;-68
2023/08/13 06:53:05;;;;;;;57.43;2.90;;;;;;;;;;5051215;28;20742;-68
2023/08/13 06:55:32;;;;;;;56.60;2.83;;;;;;;;;;5051448;28;20507;-68
2023/08/13 06:57:59;;;;;;;56.50;2.50;;;;;;;;;;5051504;28;20443;-69
2023/08/13 07:00:26;;;;;;;57.30;4.30;;;;;;;;;;5051442;28;20440;-68
2023/08/13 07:02:54;;;;;;;56.17;2.50;;;;;;;;;;5050991;28;20467;-69
2023/08/13 07:05:21;;;;;;;56.57;2.80;;;;;;;;;;5051428;28;20447;-68
2023/08/13 07:07:50;;;;;;;56.47;2.50;;;;;;;;;;5051430;28;20545;-69
2023/08/13 07:10:17;;;;;;;56.27;2.40;;;;;;;;;;5051411;28;20506;-68
2023/08/13 07:12:44;;;;;;;56.50;2.50;;;;;;;;;;5050956;28;20840;-69
2023/08/13 07:15:11;;;;;;;56.57;2.83;;;;;;;;;;5051120;28;20845;-68
2023/08/13 07:17:38;;;;;;;56.67;2.70;;;;;;;;;;5051043;28;20448;-69
2023/08/13 07:20:09;;;;;;;57.10;3.70;;;;;;;;;;5051324;28;20439;-68
2023/08/13 07:22:37;;;;;;;56.03;2.70;;;;;;;;;;5050995;28;20863;-68
2023/08/13 07:25:06;;;;;;;56.10;1.97;;;;;;;;;;5051197;28;20440;-68
2023/08/13 07:27:34;;;;;;;56.47;2.20;;;;;;;;;;5051035;28;20948;-69
2023/08/13 07:30:01;;;;;;;55.83;2.30;;;;;;;;;;5050958;28;20543;-69
2023/08/13 07:32:28;;;;;;;57.23;3.17;;;;;;;;;;5050761;28;20479;-68
2023/08/13 07:34:56;;;;;;;56.40;2.67;;;;;;;;;;5054997;28;20516;-68
2023/08/13 07:37:23;;;;;;;56.20;2.20;;;;;;;;;;5055031;28;20456;-69
2023/08/13 07:39:50;;;;;;;55.93;2.30;;;;;;;;;;5055240;28;20470;-68
2023/08/13 07:42:19;;;;;;;56.27;2.60;;;;;;;;;;5054842;28;20444;-69
2023/08/13 07:44:47;;;;;;;56.37;2.40;;;;;;;;;;5055204;28;20460;-68
2023/08/13 07:47:14;;;;;;;56.67;2.30;;;;;;;;;;5055088;28;20447;-68
2023/08/13 07:49:41;;;;;;;56.70;2.67;;;;;;;;;;5055160;28;20911;-68
2023/08/13 07:52:08;;;;;;;56.47;2.37;;;;;;;;;;5054761;28;20451;-66
2023/08/13 07:54:36;;;;;;;56.27;2.93;;;;;;;;;;5054843;28;20488;-66
2023/08/13 07:57:04;;;;;;;56.83;2.50;;;;;;;;;;5054676;28;20452;-66
2023/08/13 07:59:32;;;;;;;56.80;2.57;;;;;;;;;;5055014;28;20439;-66
2023/08/13 08:02:02;;;;;;;56.47;2.23;;;;;;;;;;5054726;28;20448;-67
2023/08/13 08:04:30;;;;;;;56.27;2.27;;;;;;;;;;5054811;28;20499;-66
2023/08/13 08:06:57;;;;;;;55.97;2.20;;;;;;;;;;5055103;28;20440;-66
2023/08/13 08:09:24;;;;;;;56.47;2.60;;;;;;;;;;5054661;28;20448;-66
2023/08/13 08:11:51;;;;;;;56.03;2.30;;;;;;;;;;5054235;28;20991;-66
2023/08/13 08:14:18;;;;;;;56.30;2.50;;;;;;;;;;5054739;28;20571;-66
2023/08/13 08:16:47;;;;;;;56.27;2.20;;;;;;;;;;5054304;28;20444;-66
2023/08/13 08:19:14;;;;;;;56.27;2.63;;;;;;;;;;5054498;28;20451;-67
2023/08/13 08:21:41;;;;;;;59.53;3.60;;;;;;;;;;5054152;28;20466;-69
2023/08/13 08:24:08;;;;;;;56.13;1.97;;;;;;;;;;5054184;28;20464;-69
2023/08/13 08:26:35;;;;;;;56.20;2.30;;;;;;;;;;5054383;28;20451;-69
2023/08/13 08:29:02;;;;;;;55.73;2.10;;;;;;;;;;5054399;28;20447;-69
2023/08/13 08:31:29;;;;;;;56.00;2.00;;;;;;;;;;5054251;28;20448;-69
2023/08/13 08:33:58;;;;;;;56.03;2.17;;;;;;;;;;5053996;28;20468;-69
2023/08/13 08:36:25;;;;;;;56.50;2.50;;;;;;;;;;5054022;28;21007;-69
2023/08/13 08:38:52;;;;;;;56.10;2.30;;;;;;;;;;5053918;28;20456;-70
2023/08/13 08:41:20;;;;;;;56.17;1.90;;;;;;;;;;5054158;28;20448;-69
2023/08/13 08:43:47;;;;;;;56.07;1.93;;;;;;;;;;5053387;28;20464;-69
2023/08/13 08:46:15;;;;;;;56.17;2.00;;;;;;;;;;5053780;28;20440;-69
2023/08/13 08:48:43;;;;;;;56.20;2.33;;;;;;;;;;5053931;28;20445;-69
2023/08/13 08:51:12;;;;;;;56.40;2.43;;;;;;;;;;5053739;28;20944;-69
2023/08/13 08:53:41;;;;;;;56.90;2.30;;;;;;;;;;5053626;28;20472;-69
2023/08/13 08:56:08;;;;;;;56.10;2.00;;;;;;;;;;5053898;28;20484;-69
2023/08/13 08:58:35;;;;;;;55.63;1.80;;;;;;;;;;5053666;28;20958;-69
2023/08/13 09:01:02;;;;;;;56.10;2.00;;;;;;;;;;5053747;28;20444;-69
2023/08/13 09:03:30;;;;;;;56.40;1.90;;;;;;;;;;5053328;28;20474;-69
2023/08/13 09:05:57;;;;;;;56.40;2.33;;;;;;;;;;5053349;28;20436;-70
2023/08/13 09:08:26;;;;;;;55.90;2.13;;;;;;;;;;5053669;28;20448;-69
2023/08/13 09:10:53;;;;;;;56.47;2.10;;;;;;;;;;5053396;28;20452;-69
2023/08/13 09:13:20;;;;;;;58.00;2.67;;;;;;;;;;5053108;28;21011;-69
2023/08/13 09:15:49;;;;;;;55.87;1.80;;;;;;;;;;5053232;28;20487;-70
2023/08/13 09:18:16;;;;;;;55.73;1.67;;;;;;;;;;5053186;28;20451;-69
2023/08/13 09:20:44;;;;;;;62.57;2.70;;;;;;;;;;5053503;28;20468;-69
2023/08/13 09:23:12;;;;;;;57.07;2.40;;;;;;;;;;5053046;28;20460;-69
2023/08/13 09:25:40;;;;;;;56.00;2.20;;;;;;;;;;5053042;28;20451;-69
2023/08/13 09:28:07;;;;;;;56.00;1.83;;;;;;;;;;5053163;28;20440;-69
2023/08/13 09:30:34;;;;;;;56.50;1.80;;;;;;;;;;5053098;28;20448;-69
2023/08/13 09:33:02;;;;;;;55.67;2.10;;;;;;;;;;5052593;28;21000;-70
2023/08/13 09:35:30;;;;;;;56.27;2.10;;;;;;;;;;5053027;28;20541;-70
2023/08/13 09:37:57;;;;;;;56.97;2.20;;;;;;;;;;5053275;28;20503;-70
2023/08/13 09:40:24;;;;;;;55.67;1.77;;;;;;;;;;5052955;28;20440;-68
2023/08/13 09:42:54;;;;;;;56.07;1.60;;;;;;;;;;5052500;28;20859;-68
2023/08/13 09:45:23;;;;;;;56.00;1.80;;;;;;;;;;5052729;28;20437;-68
2023/08/13 09:47:50;;;;;;;56.53;1.90;;;;;;;;;;5052932;28;20448;-68
2023/08/13 09:50:18;;;;;;;55.63;1.80;;;;;;;;;;5052874;28;20805;-69
2023/08/13 09:52:47;;;;;;;55.80;1.90;;;;;;;;;;5052419;28;20444;-69
2023/08/13 09:55:15;;;;;;;56.20;2.00;;;;;;;;;;5052174;28;20881;-69
2023/08/13 09:57:42;;;;;;;56.10;2.00;;;;;;;;;;5052185;28;20444;-68
2023/08/13 10:00:13;;;;;;;56.37;2.00;;;;;;;;;;5052415;28;20959;-68
2023/08/13 10:02:41;;;;;;;57.33;2.00;;;;;;;;;;5052363;28;20437;-68
2023/08/13 10:05:09;;;;;;;56.10;1.97;;;;;;;;;;5052587;28;20581;-69
2023/08/13 10:07:37;;;;;;;55.60;1.70;;;;;;;;;;5052356;28;20490;-70
2023/08/13 10:10:04;;;;;;;56.10;2.10;;;;;;;;;;5052151;28;20444;-70
2023/08/13 10:12:32;;;;;;;56.20;2.00;;;;;;;;;;5051908;28;20444;-70
2023/08/13 10:14:59;;;;;;;56.57;2.40;;;;;;;;;;5052325;28;20447;-70
2023/08/13 10:17:28;;;;;;;56.10;1.90;;;;;;;;;;5052297;28;20452;-70
2023/08/13 10:19:55;;;;;;;55.87;1.87;;;;;;;;;;5052265;28;20818;-68
2023/08/13 10:22:32;;;;;;;55.63;1.57;;;;;;;;;;5051830;28;20440;-69
2023/08/13 10:24:59;;;;;;;55.70;1.67;;;;;;;;;;5051934;28;20447;-69
2023/08/13 10:27:26;;;;;;;55.70;1.87;;;;;;;;;;5052122;28;20452;-68
2023/08/13 10:30:05;;;;;;;55.80;2.20;;;;;;;;;;5052113;28;20459;-68
2023/08/13 10:32:33;;;;;;;55.80;2.00;;;;;;;;;;5051759;28;20455;-68
2023/08/13 10:35:00;;;;;;;55.70;1.90;;;;;;;;;;5051819;28;20447;-68
2023/08/13 10:37:31;;;;;;;56.10;2.30;;;;;;;;;;5051452;28;20467;-68
2023/08/13 10:40:08;;;;;;;55.60;1.80;;;;;;;;;;5052029;28;20448;-68
2023/08/13 10:42:49;;;;;;;55.50;1.60;;;;;;;;;;5051586;28;20547;-68
2023/08/13 10:45:17;;;;;;;55.47;1.77;;;;;;;;;;5051658;28;20447;-68
2023/08/13 10:47:49;;;;;;;57.50;2.23;;;;;;;;;;5051591;28;20502;-68
2023/08/13 10:50:22;;;;;;;55.60;1.70;;;;;;;;;;5051788;28;20455;-68
2023/08/13 10:52:49;;;;;;;55.53;1.53;;;;;;;;;;5051200;28;20925;-68
2023/08/13 10:55:18;;;;;;;56.00;2.20;;;;;;;;;;5051504;28;20487;-68
2023/08/13 10:57:49;;;;;;;55.50;1.70;;;;;;;;;;5051473;28;20932;-68
2023/08/13 11:00:17;;;;;;;55.70;1.83;;;;;;;;;;5051449;28;20936;-68
2023/08/13 11:02:45;;;;;;;55.70;1.97;;;;;;;;;;5051506;28;20444;-69
2023/08/13 11:05:13;;;;;;;55.67;1.97;;;;;;;;;;5051519;28;20445;-69
2023/08/13 11:07:41;;;;;;;56.30;2.00;;;;;;;;;;5051171;28;20937;-69
2023/08/13 11:10:08;;;;;;;56.13;2.00;;;;;;;;;;5051248;28;20958;-69
2023/08/13 11:12:35;;;;;;;56.27;2.10;;;;;;;;;;5050948;28;20480;-69
2023/08/13 11:15:02;;;;;;;56.47;2.07;;;;;;;;;;5051177;28;20830;-69
2023/08/13 11:17:30;;;;;;;56.53;2.20;;;;;;;;;;5051191;28;20444;-69
2023/08/13 11:19:57;;;;;;;56.07;1.77;;;;;;;;;;5051222;28;20444;-69
2023/08/13 11:22:26;;;;;;;56.70;2.07;;;;;;;;;;5051074;28;20543;-69
2023/08/13 11:24:53;;;;;;;56.13;2.00;;;;;;;;;;5051240;28;20490;-69
2023/08/13 11:27:20;;;;;;;55.97;1.70;;;;;;;;;;5051145;28;20443;-69
2023/08/13 11:29:47;;;;;;;55.67;1.77;;;;;;;;;;5051217;28;20448;-69
2023/08/13 11:32:14;;;;;;;55.77;1.83;;;;;;;;;;5051103;28;20440;-69
2023/08/13 11:34:41;;;;;;;56.30;2.10;;;;;;;;;;5051177;28;20461;-69
2023/08/13 11:37:08;;;;;;;55.83;1.57;;;;;;;;;;5050799;28;20963;-69
2023/08/13 11:39:37;;;;;;;56.60;2.37;;;;;;;;;;5051117;28;20466;-68
2023/08/13 11:42:10;;;;;;;55.67;1.70;;;;;;;;;;5050660;28;20441;-69
2023/08/13 11:44:38;;;;;;;56.83;2.00;;;;;;;;;;5051267;28;20483;-69
2023/08/13 11:47:05;;;;;;;55.70;2.00;;;;;;;;;;5051052;28;20444;-69
2023/08/13 11:49:32;;;;;;;56.13;2.50;;;;;;;;;;5051065;28;20445;-69
2023/08/13 11:52:00;;;;;;;55.60;1.80;;;;;;;;;;5050649;28;20448;-69
2023/08/13 11:54:27;;;;;;;55.67;2.17;;;;;;;;;;5050655;28;20472;-69
2023/08/13 11:56:56;;;;;;;55.53;1.70;;;;;;;;;;5050890;28;20863;-69
2023/08/13 11:59:26;;;;;;;55.80;1.70;;;;;;;;;;5050925;28;20451;-69
2023/08/13 12:01:54;;;;;;;57.13;2.33;;;;;;;;;;5050589;28;20455;-70
2023/08/13 12:04:22;;;;;;;55.70;2.00;;;;;;;;;;5050774;28;20468;-70
2023/08/13 12:06:49;;;;;;;55.80;1.90;;;;;;;;;;5050599;28;20444;-68
2023/08/13 12:09:16;;;;;;;55.70;1.80;;;;;;;;;;5050602;28;20447;-69
2023/08/13 12:11:43;;;;;;;55.83;2.20;;;;;;;;;;5050407;28;20452;-69
2023/08/13 12:14:12;;;;;;;55.90;2.13;;;;;;;;;;5050709;28;20816;-69
2023/08/13 12:16:39;;;;;;;55.80;1.80;;;;;;;;;;5050684;28;20861;-69
2023/08/13 12:19:07;;;;;;;55.47;1.70;;;;;;;;;;5051488;28;20452;-69
2023/08/13 12:21:34;;;;;;;55.23;1.80;;;;;;;;;;5054182;28;20547;-70
2023/08/13 12:24:03;;;;;;;55.97;2.60;;;;;;;;;;5054406;28;20464;-69
2023/08/13 12:26:30;;;;;;;55.70;2.00;;;;;;;;;;5054203;28;20527;-69
2023/08/13 12:28:57;;;;;;;55.50;1.80;;;;;;;;;;5054353;28;20450;-70
2023/08/13 12:31:26;;;;;;;55.23;2.07;;;;;;;;;;5054147;28;20451;-70
2023/08/13 12:33:53;;;;;;;55.40;1.87;;;;;;;;;;5053753;28;20972;-69
2023/08/13 12:36:21;;;;;;;55.07;1.70;;;;;;;;;;5053722;28;21006;-70
2023/08/13 12:38:48;;;;;;;55.60;1.90;;;;;;;;;;5053985;28;20452;-69
2023/08/13 12:41:15;;;;;;;55.70;2.10;;;;;;;;;;5054168;28;20441;-70
2023/08/13 12:43:42;;;;;;;56.20;2.37;;;;;;;;;;5053780;28;20460;-70
2023/08/13 12:46:09;;;;;;;56.67;2.70;;;;;;;;;;5053783;28;20952;-70
2023/08/13 12:48:40;;;;;;;55.40;2.00;;;;;;;;;;5053829;28;20518;-70
2023/08/13 12:51:07;;;;;;;54.97;1.83;;;;;;;;;;5054035;28;20450;-70
2023/08/13 12:53:34;;;;;;;55.23;1.80;;;;;;;;;;5053479;28;21062;-69
2023/08/13 12:56:04;;;;;;;55.30;2.03;;;;;;;;;;5053690;28;20491;-70
2023/08/13 12:58:32;;;;;;;54.97;1.80;;;;;;;;;;5053860;28;20494;-70
2023/08/13 13:00:59;;;;;;;55.47;1.80;;;;;;;;;;5053691;28;20440;-71
2023/08/13 13:03:26;;;;;;;55.03;1.63;;;;;;;;;;5053219;28;20836;-70
2023/08/13 13:05:54;;;;;;;55.70;2.30;;;;;;;;;;5053654;28;20443;-70
2023/08/13 13:08:21;;;;;;;55.37;2.00;;;;;;;;;;5053673;28;20440;-69
2023/08/13 13:10:48;;;;;;;55.33;2.00;;;;;;;;;;5053576;28;20445;-69
2023/08/13 13:13:15;;;;;;;55.57;2.10;;;;;;;;;;5053018;28;20819;-69
2023/08/13 13:15:42;;;;;;;57.23;2.03;;;;;;;;;;5053197;28;20444;-69
2023/08/13 13:18:10;;;;;;;55.17;1.50;;;;;;;;;;5053568;28;20444;-70
2023/08/13 13:20:37;;;;;;;55.30;2.13;;;;;;;;;;5053433;28;20448;-69
2023/08/13 13:23:05;;;;;;;55.40;2.43;;;;;;;;;;5052931;28;20838;-69
2023/08/13 13:25:32;;;;;;;55.40;2.10;;;;;;;;;;5053265;28;20459;-70
2023/08/13 13:28:00;;;;;;;54.97;1.77;;;;;;;;;;5053132;28;20936;-70
2023/08/13 13:30:29;;;;;;;55.30;1.90;;;;;;;;;;5052057;28;20480;-69
2023/08/13 13:32:56;;;;;;;54.90;1.70;;;;;;;;;;5052592;28;20468;-70
2023/08/13 13:35:23;;;;;;;55.40;1.70;;;;;;;;;;5052862;28;20932;-70
2023/08/13 13:37:50;;;;;;;55.40;2.17;;;;;;;;;;5052986;28;20488;-70
2023/08/13 13:40:19;;;;;;;55.27;1.90;;;;;;;;;;5053057;28;20440;-69
2023/08/13 13:42:46;;;;;;;55.17;2.03;;;;;;;;;;5052434;28;20452;-70
2023/08/13 13:45:13;;;;;;;55.10;1.80;;;;;;;;;;5053188;28;20448;-70
2023/08/13 13:47:40;;;;;;;55.00;1.53;;;;;;;;;;5053015;28;20440;-70
2023/08/13 13:50:07;;;;;;;55.40;2.00;;;;;;;;;;5052606;28;20451;-70
2023/08/13 13:52:34;;;;;;;55.37;1.87;;;;;;;;;;5052426;28;20445;-70
2023/08/13 13:55:02;;;;;;;54.97;1.73;;;;;;;;;;5052693;28;20889;-70
2023/08/13 13:57:30;;;;;;;55.00;1.57;;;;;;;;;;5052369;28;20482;-70
2023/08/13 13:59:57;;;;;;;55.23;2.07;;;;;;;;;;5052514;28;20823;-70
2023/08/13 14:02:25;;;;;;;55.00;1.93;;;;;;;;;;5052426;28;20452;-70
2023/08/13 14:04:52;;;;;;;54.83;1.60;;;;;;;;;;5052428;28;20460;-70
2023/08/13 14:07:19;;;;;;;54.90;1.70;;;;;;;;;;5052480;28;20460;-70
2023/08/13 14:09:46;;;;;;;54.90;1.77;;;;;;;;;;5052368;28;20445;-69
2023/08/13 14:12:13;;;;;;;54.90;2.10;;;;;;;;;;5052024;28;20448;-69
2023/08/13 14:14:42;;;;;;;54.77;2.00;;;;;;;;;;5052163;28;20464;-70
2023/08/13 14:17:09;;;;;;;54.80;1.60;;;;;;;;;;5052193;28;20484;-70
2023/08/13 14:19:36;;;;;;;54.83;1.90;;;;;;;;;;5052228;28;20451;-69
2023/08/13 14:22:03;;;;;;;54.77;1.60;;;;;;;;;;5051875;28;20444;-69
2023/08/13 14:24:30;;;;;;;55.00;1.97;;;;;;;;;;5051944;28;20473;-69
2023/08/13 14:26:57;;;;;;;55.10;1.73;;;;;;;;;;5052132;28;20451;-69
2023/08/13 14:29:24;;;;;;;54.93;1.60;;;;;;;;;;5051919;28;20949;-69
2023/08/13 14:31:53;;;;;;;54.67;1.40;;;;;;;;;;5051810;28;20448;-70
2023/08/13 14:34:20;;;;;;;54.87;1.73;;;;;;;;;;5051861;28;20465;-70